createdAt,value
2023-09-06T00:01:09.039Z,5.93
2023-09-06T00:03:38.138Z,6.28
2023-09-06T00:06:05.677Z,6.20
2023-09-06T00:08:35.203Z,5.55
2023-09-06T00:11:06.448Z,5.70
2023-09-06T00:13:33.692Z,5.40
2023-09-06T00:16:01.494Z,5.80
2023-09-06T00:18:29.426Z,5.90
2023-09-06T00:20:58.577Z,6.32
2023-09-06T00:23:25.998Z,7.57
2023-09-06T00:25:54.040Z,6.72
2023-09-06T00:28:20.727Z,6.45
2023-09-06T00:30:47.476Z,6.85
2023-09-06T00:33:14.557Z,6.50
2023-09-06T00:35:41.262Z,6.47
2023-09-06T00:38:08.141Z,6.03
2023-09-06T00:40:37.565Z,6.10
2023-09-06T00:43:05.518Z,6.28
2023-09-06T00:45:45.325Z,5.65
2023-09-06T00:48:14.102Z,6.45
2023-09-06T00:50:41.685Z,7.57
2023-09-06T00:53:08.333Z,6.82
2023-09-06T00:55:38.164Z,6.53
2023-09-06T00:58:06.386Z,7.03
2023-09-06T01:00:34.262Z,7.03
2023-09-06T01:03:01.151Z,6.90
2023-09-06T01:05:28.730Z,6.07
2023-09-06T01:07:58.198Z,6.05
2023-09-06T01:10:24.880Z,7.25
2023-09-06T01:12:52.938Z,6.63
2023-09-06T01:15:19.690Z,6.13
2023-09-06T01:17:46.501Z,5.80
2023-09-06T01:20:35.085Z,5.57
2023-09-06T01:23:25.291Z,5.53
2023-09-06T01:25:52.072Z,7.10
2023-09-06T01:28:18.872Z,6.22
2023-09-06T01:30:45.509Z,4.80
2023-09-06T01:33:12.141Z,5.68
2023-09-06T01:35:38.751Z,6.65
2023-09-06T01:38:05.406Z,5.85
2023-09-06T01:40:32.110Z,5.50
2023-09-06T01:42:59.830Z,5.35
2023-09-06T01:45:30.223Z,5.40
2023-09-06T01:47:56.948Z,5.18
2023-09-06T01:50:23.566Z,5.75
2023-09-06T01:52:50.200Z,6.57
2023-09-06T01:55:17.059Z,5.63
2023-09-06T01:57:43.740Z,5.40
2023-09-06T02:00:20.341Z,6.40
2023-09-06T02:02:47.598Z,5.57
2023-09-06T02:05:16.248Z,7.25
2023-09-06T02:07:43.860Z,6.45
2023-09-06T02:10:11.132Z,5.97
2023-09-06T02:12:38.627Z,6.45
2023-09-06T02:15:07.030Z,5.80
2023-09-06T02:17:34.042Z,6.10
2023-09-06T02:20:13.449Z,6.10
2023-09-06T02:22:41.846Z,6.47
2023-09-06T02:25:09.506Z,6.03
2023-09-06T02:27:36.990Z,6.05
2023-09-06T02:30:06.185Z,7.82
2023-09-06T02:32:33.612Z,6.05
2023-09-06T02:35:00.590Z,6.57
2023-09-06T02:37:27.233Z,6.10
2023-09-06T02:39:54.078Z,6.97
2023-09-06T02:42:21.488Z,6.47
2023-09-06T02:44:48.228Z,7.78
2023-09-06T02:47:16.433Z,6.15
2023-09-06T02:49:44.077Z,6.72
2023-09-06T02:52:29.362Z,7.47
2023-09-06T02:54:58.899Z,8.02
2023-09-06T02:57:27.045Z,7.82
2023-09-06T02:59:54.856Z,7.40
2023-09-06T03:02:22.736Z,7.47
2023-09-06T03:04:56.197Z,6.70
2023-09-06T03:07:23.269Z,7.45
2023-09-06T03:09:50.459Z,7.03
2023-09-06T03:12:17.802Z,6.82
2023-09-06T03:14:45.635Z,7.55
2023-09-06T03:17:12.539Z,7.30
2023-09-06T03:19:41.697Z,8.13
2023-09-06T03:22:10.418Z,7.47
2023-09-06T03:24:41.428Z,6.47
2023-09-06T03:27:08.943Z,6.95
2023-09-06T03:29:38.983Z,7.10
2023-09-06T03:32:09.015Z,8.25
2023-09-06T03:34:36.393Z,6.85
2023-09-06T03:37:05.974Z,7.28
2023-09-06T03:39:38.304Z,6.97
2023-09-06T03:42:09.547Z,7.70
2023-09-06T03:44:38.811Z,7.30
2023-09-06T03:47:07.463Z,6.60
2023-09-06T03:49:36.898Z,7.93
2023-09-06T03:52:05.871Z,7.22
2023-09-06T03:54:35.281Z,7.10
2023-09-06T03:57:03.100Z,7.07
2023-09-06T03:59:30.104Z,7.70
2023-09-06T04:01:57.011Z,7.72
2023-09-06T04:04:24.383Z,7.55
2023-09-06T04:06:51.380Z,7.57
2023-09-06T04:09:19.603Z,6.97
2023-09-06T04:11:47.725Z,6.95
2023-09-06T04:14:14.606Z,6.82
2023-09-06T04:16:41.548Z,6.18
2023-09-06T04:19:08.246Z,7.57
2023-09-06T04:21:34.897Z,7.18
2023-09-06T04:24:01.586Z,8.15
2023-09-06T04:26:28.284Z,7.90
2023-09-06T04:28:54.919Z,6.35
2023-09-06T04:31:21.594Z,7.97
2023-09-06T04:33:48.377Z,7.97
2023-09-06T04:36:15.153Z,7.28
2023-09-06T04:38:41.858Z,7.65
2023-09-06T04:41:08.758Z,7.15
2023-09-06T04:43:35.476Z,7.70
2023-09-06T04:46:02.136Z,8.30
2023-09-06T04:48:29.040Z,7.13
2023-09-06T04:50:57.571Z,8.63
2023-09-06T04:53:33.151Z,8.85
2023-09-06T04:56:03.901Z,7.28
2023-09-06T04:58:30.818Z,7.07
2023-09-06T05:00:57.744Z,5.88
2023-09-06T05:03:24.731Z,6.97
2023-09-06T05:05:52.240Z,6.43
2023-09-06T05:08:19.014Z,7.13
2023-09-06T05:10:45.654Z,7.70
2023-09-06T05:13:13.013Z,7.50
2023-09-06T05:15:39.808Z,6.78
2023-09-06T05:18:07.098Z,7.63
2023-09-06T05:20:36.187Z,7.43
2023-09-06T05:23:06.117Z,10.07
2023-09-06T05:25:33.204Z,8.15
2023-09-06T05:28:03.407Z,7.45
2023-09-06T05:30:30.163Z,7.70
2023-09-06T05:32:57.506Z,7.65
2023-09-06T05:35:24.690Z,7.20
2023-09-06T05:37:51.580Z,7.20
2023-09-06T05:40:23.744Z,7.60
2023-09-06T05:42:51.263Z,7.10
2023-09-06T05:45:19.093Z,7.43
2023-09-06T05:47:45.865Z,7.63
2023-09-06T05:50:12.497Z,7.88
2023-09-06T05:52:39.879Z,7.35
2023-09-06T05:55:07.959Z,7.07
2023-09-06T05:57:34.736Z,6.70
2023-09-06T06:00:02.537Z,7.63
2023-09-06T06:02:31.200Z,7.35
2023-09-06T06:04:58.317Z,7.68
2023-09-06T06:07:24.967Z,7.50
2023-09-06T06:09:51.739Z,7.13
2023-09-06T06:12:23.679Z,6.47
2023-09-06T06:14:52.912Z,8.20
2023-09-06T06:17:20.194Z,7.47
2023-09-06T06:19:48.548Z,16.35
2023-09-06T06:22:15.253Z,7.25
2023-09-06T06:24:44.011Z,8.05
2023-09-06T06:27:10.871Z,13.25
2023-09-06T06:29:37.750Z,7.47
2023-09-06T06:32:05.176Z,8.63
2023-09-06T06:34:31.830Z,7.90
2023-09-06T06:36:58.420Z,6.70
2023-09-06T06:39:24.998Z,8.27
2023-09-06T06:41:51.863Z,7.95
2023-09-06T06:44:19.060Z,7.22
2023-09-06T06:46:45.786Z,7.93
2023-09-06T06:49:12.441Z,7.38
2023-09-06T06:51:43.103Z,7.90
2023-09-06T06:54:11.083Z,7.57
2023-09-06T06:56:38.438Z,7.30
2023-09-06T06:59:05.311Z,6.63
2023-09-06T07:01:32.291Z,6.68
2023-09-06T07:03:59.224Z,7.90
2023-09-06T07:06:26.496Z,7.53
2023-09-06T07:08:54.580Z,7.88
2023-09-06T07:11:21.748Z,7.10
2023-09-06T07:13:49.066Z,6.93
2023-09-06T07:16:17.179Z,7.00
2023-09-06T07:18:47.707Z,6.95
2023-09-06T07:21:15.021Z,6.72
2023-09-06T07:23:41.716Z,6.30
2023-09-06T07:26:08.581Z,6.00
2023-09-06T07:28:39.506Z,6.65
2023-09-06T07:31:06.886Z,6.68
2023-09-06T07:33:33.739Z,6.80
2023-09-06T07:36:01.144Z,5.18
2023-09-06T07:38:28.084Z,6.20
2023-09-06T07:40:59.886Z,6.18
2023-09-06T07:43:27.359Z,7.07
2023-09-06T07:45:54.013Z,6.10
2023-09-06T07:48:20.846Z,6.72
2023-09-06T07:50:49.087Z,5.63
2023-09-06T07:53:15.910Z,6.28
2023-09-06T07:55:44.678Z,6.15
2023-09-06T07:58:11.474Z,5.10
2023-09-06T08:00:38.404Z,5.47
2023-09-06T08:03:05.542Z,6.30
2023-09-06T08:05:33.492Z,5.78
2023-09-06T08:08:00.331Z,6.15
2023-09-06T08:10:27.043Z,5.57
2023-09-06T08:12:53.726Z,4.60
2023-09-06T08:15:20.461Z,4.82
2023-09-06T08:17:51.046Z,4.78
2023-09-06T08:20:17.967Z,4.93
2023-09-06T08:22:46.156Z,4.40
2023-09-06T08:25:14.060Z,5.07
2023-09-06T08:27:40.745Z,5.53
2023-09-06T08:30:11.635Z,4.82
2023-09-06T08:32:40.847Z,4.70
2023-09-06T08:35:08.385Z,4.70
2023-09-06T08:37:35.475Z,4.60
2023-09-06T08:40:06.494Z,4.82
2023-09-06T08:42:34.658Z,5.50
2023-09-06T08:45:02.992Z,4.65
2023-09-06T08:47:30.031Z,5.65
2023-09-06T08:49:56.986Z,6.25
2023-09-06T08:55:08.695Z,5.28
2023-09-06T08:57:35.348Z,4.50
2023-09-06T09:00:03.185Z,5.03
2023-09-06T09:02:29.823Z,4.30
2023-09-06T09:05:09.516Z,5.90
2023-09-06T09:07:43.990Z,4.65
2023-09-06T09:10:12.088Z,3.97
2023-09-06T09:12:39.249Z,4.22
2023-09-06T09:15:22.678Z,4.90
2023-09-06T09:17:59.926Z,4.53
2023-09-06T09:20:28.537Z,4.10
2023-09-06T09:23:01.232Z,4.65
2023-09-06T09:25:27.871Z,4.57
2023-09-06T09:27:57.660Z,4.70
2023-09-06T09:30:25.098Z,4.00
2023-09-06T09:32:58.915Z,4.35
2023-09-06T09:35:26.550Z,4.18
2023-09-06T09:37:53.582Z,4.05
2023-09-06T09:40:21.621Z,4.00
2023-09-06T09:42:56.283Z,4.25
2023-09-06T09:45:24.445Z,3.42
2023-09-06T09:47:53.952Z,4.10
2023-09-06T09:50:22.630Z,4.70
2023-09-06T09:52:49.561Z,4.05
2023-09-06T09:55:16.895Z,4.93
2023-09-06T09:57:45.757Z,4.15
2023-09-06T10:00:14.449Z,4.05
2023-09-06T10:02:42.956Z,4.45
2023-09-06T10:05:13.377Z,4.05
2023-09-06T10:07:49.684Z,3.70
2023-09-06T10:10:17.022Z,4.00
2023-09-06T10:12:45.183Z,5.03
2023-09-06T10:15:14.750Z,3.95
2023-09-06T10:17:43.171Z,3.55
2023-09-06T10:20:17.356Z,3.80
2023-09-06T10:22:45.112Z,5.65
2023-09-06T10:25:11.906Z,4.00
2023-09-06T10:27:49.738Z,3.97
2023-09-06T10:30:19.747Z,3.58
2023-09-06T10:32:49.841Z,3.58
2023-09-06T10:35:23.965Z,4.75
2023-09-06T10:38:12.796Z,5.93
2023-09-06T10:40:59.909Z,4.20
2023-09-06T10:43:30.337Z,4.85
2023-09-06T10:45:59.581Z,3.85
2023-09-06T10:48:26.666Z,4.78
2023-09-06T10:51:09.692Z,4.05
2023-09-06T10:53:36.984Z,4.28
2023-09-06T10:56:06.394Z,4.32
2023-09-06T10:58:36.168Z,4.38
2023-09-06T11:01:19.156Z,4.55
2023-09-06T11:03:51.818Z,4.88
2023-09-06T11:06:20.104Z,5.28
2023-09-06T11:08:47.066Z,4.78
2023-09-06T11:11:15.372Z,7.68
2023-09-06T11:13:43.201Z,5.18
2023-09-06T11:16:14.362Z,6.43
2023-09-06T11:18:48.853Z,5.30
2023-09-06T11:21:24.657Z,4.85
2023-09-06T11:23:52.731Z,3.17
2023-09-06T11:26:20.483Z,5.88
2023-09-06T11:28:48.958Z,4.55
2023-09-06T11:31:25.414Z,4.13
2023-09-06T11:33:56.851Z,4.35
2023-09-06T11:36:27.926Z,3.85
2023-09-06T11:38:55.241Z,4.65
2023-09-06T11:41:22.649Z,4.85
2023-09-06T11:43:52.145Z,3.80
2023-09-06T11:46:18.964Z,3.60
2023-09-06T11:48:45.634Z,4.07
2023-09-06T11:51:14.558Z,6.00
2023-09-06T11:53:46.627Z,4.18
2023-09-06T11:58:46.761Z,4.00
2023-09-06T12:01:22.749Z,4.57
2023-09-06T12:03:49.876Z,3.70
2023-09-06T12:06:16.895Z,3.63
2023-09-06T12:08:44.127Z,3.50
2023-09-06T12:11:12.687Z,3.80
2023-09-06T12:13:39.662Z,3.78
2023-09-06T12:16:08.018Z,4.43
2023-09-06T12:18:36.755Z,4.25
2023-09-06T12:21:04.520Z,3.85
2023-09-06T12:23:31.585Z,3.78
2023-09-06T12:25:58.836Z,3.95
2023-09-06T12:28:25.694Z,2.93
2023-09-06T12:30:56.282Z,3.85
2023-09-06T12:33:23.540Z,3.25
2023-09-06T12:35:59.407Z,3.38
2023-09-06T12:38:27.807Z,3.92
2023-09-06T12:40:55.657Z,3.72
2023-09-06T12:43:22.354Z,3.05
2023-09-06T12:45:49.843Z,4.45
2023-09-06T12:48:17.296Z,4.63
2023-09-06T12:50:44.194Z,3.58
2023-09-06T12:53:11.326Z,4.18
2023-09-06T12:55:38.543Z,4.63
2023-09-06T12:58:05.307Z,4.20
2023-09-06T13:00:32.209Z,3.78
2023-09-06T13:02:58.819Z,3.35
2023-09-06T13:05:27.257Z,3.70
2023-09-06T13:07:54.254Z,3.40
2023-09-06T13:10:20.933Z,3.55
2023-09-06T13:12:47.726Z,3.75
2023-09-06T13:15:14.976Z,3.50
2023-09-06T13:17:41.687Z,3.00
2023-09-06T13:20:11.712Z,3.15
2023-09-06T13:22:39.679Z,2.75
2023-09-06T13:25:07.650Z,3.83
2023-09-06T13:27:35.019Z,3.83
2023-09-06T13:30:03.338Z,3.53
2023-09-06T13:32:30.028Z,2.88
2023-09-06T13:34:56.842Z,2.38
2023-09-06T13:37:23.626Z,3.17
2023-09-06T13:39:50.725Z,4.38
2023-09-06T13:42:18.542Z,3.55
2023-09-06T13:44:45.279Z,2.85
2023-09-06T13:47:16.390Z,3.00
2023-09-06T13:49:43.896Z,3.33
2023-09-06T13:52:11.881Z,3.05
2023-09-06T13:54:39.511Z,2.75
2023-09-06T13:57:09.171Z,4.07
2023-09-06T13:59:35.855Z,3.83
2023-09-06T14:02:04.605Z,4.00
2023-09-06T14:04:31.571Z,3.53
2023-09-06T14:06:59.356Z,3.25
2023-09-06T14:09:26.134Z,3.70
2023-09-06T14:11:54.710Z,3.33
2023-09-06T14:14:24.234Z,3.15
2023-09-06T14:16:50.898Z,3.13
2023-09-06T14:19:17.662Z,3.80
2023-09-06T14:21:46.953Z,2.80
2023-09-06T14:24:15.402Z,2.95
2023-09-06T14:26:44.306Z,3.03
2023-09-06T14:29:13.057Z,2.78
2023-09-06T14:31:40.407Z,3.53
2023-09-06T14:34:07.164Z,3.38
2023-09-06T14:36:33.965Z,3.70
2023-09-06T14:39:02.285Z,3.35
2023-09-06T14:41:29.142Z,3.75
2023-09-06T14:43:56.622Z,3.75
2023-09-06T14:46:23.750Z,3.10
2023-09-06T14:48:50.781Z,3.55
2023-09-06T14:51:18.233Z,12.52
2023-09-06T14:53:44.991Z,3.90
2023-09-06T14:56:12.108Z,3.60
2023-09-06T14:58:38.786Z,3.25
2023-09-06T15:01:07.092Z,3.28
2023-09-06T15:03:36.113Z,2.85
2023-09-06T15:06:05.943Z,3.78
2023-09-06T15:08:32.788Z,3.22
2023-09-06T15:10:59.650Z,3.10
2023-09-06T15:13:26.355Z,3.05
2023-09-06T15:15:53.590Z,2.90
2023-09-06T15:18:20.302Z,3.35
2023-09-06T15:20:47.443Z,3.83
2023-09-06T15:23:17.021Z,2.85
2023-09-06T15:25:45.481Z,3.38
2023-09-06T15:28:12.452Z,2.70
2023-09-06T15:30:39.436Z,2.85
2023-09-06T15:33:06.843Z,3.47
2023-09-06T15:35:33.886Z,3.38
2023-09-06T15:38:04.931Z,3.65
2023-09-06T15:40:32.707Z,2.53
2023-09-06T15:42:59.331Z,2.65
2023-09-06T15:45:26.411Z,3.30
2023-09-06T15:47:53.231Z,2.75
2023-09-06T15:50:21.073Z,2.60
2023-09-06T15:52:48.277Z,2.47
2023-09-06T15:55:14.958Z,2.78
2023-09-06T15:57:42.422Z,2.45
2023-09-06T16:00:24.352Z,2.83
2023-09-06T16:02:57.135Z,2.40
2023-09-06T16:05:24.011Z,2.42
2023-09-06T16:07:50.678Z,2.38
2023-09-06T16:10:17.255Z,3.30
2023-09-06T16:12:47.438Z,3.58
2023-09-06T16:17:45.965Z,2.63
2023-09-06T16:20:13.316Z,2.40
2023-09-06T16:22:40.050Z,2.25
2023-09-06T16:25:08.973Z,3.60
2023-09-06T16:27:36.009Z,3.20
2023-09-06T16:30:06.721Z,2.78
2023-09-06T16:32:34.052Z,3.30
2023-09-06T16:35:08.006Z,3.40
2023-09-06T16:37:35.291Z,4.32
2023-09-06T16:40:02.121Z,2.50
2023-09-06T16:42:28.905Z,5.03
2023-09-06T16:44:55.581Z,3.33
2023-09-06T16:47:22.177Z,4.22
2023-09-06T16:49:49.652Z,5.32
2023-09-06T16:52:16.635Z,3.95
2023-09-06T16:54:43.313Z,4.88
2023-09-06T16:57:12.806Z,5.43
2023-09-06T16:59:39.540Z,5.32
2023-09-06T17:02:06.927Z,5.00
2023-09-06T17:04:33.642Z,5.30
2023-09-06T17:07:00.632Z,5.20
2023-09-06T17:09:29.062Z,3.42
2023-09-06T17:11:55.855Z,4.97
2023-09-06T17:14:22.503Z,3.90
2023-09-06T17:16:49.278Z,4.80
2023-09-06T17:19:16.026Z,7.82
2023-09-06T17:21:42.905Z,6.43
2023-09-06T17:24:10.380Z,5.85
2023-09-06T17:26:38.047Z,5.10
2023-09-06T17:29:09.814Z,7.75
2023-09-06T17:31:36.860Z,5.73
2023-09-06T17:34:03.686Z,6.25
2023-09-06T17:36:30.928Z,5.40
2023-09-06T17:38:57.582Z,6.63
2023-09-06T17:41:27.168Z,7.72
2023-09-06T17:43:53.990Z,6.35
2023-09-06T17:46:25.982Z,6.50
2023-09-06T17:48:54.947Z,6.40
2023-09-06T17:51:22.284Z,5.32
2023-09-06T17:53:49.020Z,5.85
2023-09-06T17:56:17.763Z,6.03
2023-09-06T17:58:45.325Z,5.40
2023-09-06T18:01:13.819Z,8.25
2023-09-06T18:03:43.096Z,7.97
2023-09-06T18:06:10.900Z,6.90
2023-09-06T18:08:39.427Z,7.57
2023-09-06T18:11:07.921Z,8.20
2023-09-06T18:13:37.870Z,5.47
2023-09-06T18:16:06.896Z,11.57
2023-09-06T18:18:34.620Z,9.95
2023-09-06T18:21:04.901Z,10.77
2023-09-06T18:23:33.446Z,9.98
2023-09-06T18:26:01.584Z,9.25
2023-09-06T18:28:28.538Z,4.65
2023-09-06T18:30:55.450Z,5.30
2023-09-06T18:33:22.693Z,7.00
2023-09-06T18:35:57.588Z,6.00
2023-09-06T18:38:24.713Z,8.02
2023-09-06T18:40:52.934Z,7.22
2023-09-06T18:43:22.240Z,6.15
2023-09-06T18:45:49.147Z,6.03
2023-09-06T18:48:17.307Z,7.40
2023-09-06T18:50:46.336Z,9.20
2023-09-06T18:53:14.482Z,8.40
2023-09-06T18:55:44.172Z,5.82
2023-09-06T18:58:11.832Z,6.57
2023-09-06T19:00:40.435Z,6.75
2023-09-06T19:03:12.444Z,7.47
2023-09-06T19:05:40.175Z,7.47
2023-09-06T19:08:12.538Z,7.50
2023-09-06T19:10:40.444Z,7.60
2023-09-06T19:13:07.510Z,6.70
2023-09-06T19:15:34.201Z,6.30
2023-09-06T19:18:01.053Z,6.22
2023-09-06T19:20:27.686Z,5.40
2023-09-06T19:22:54.567Z,7.85
2023-09-06T19:25:25.091Z,11.93
2023-09-06T19:27:52.418Z,6.57
2023-09-06T19:30:19.238Z,6.28
2023-09-06T19:32:45.943Z,4.88
2023-09-06T19:35:12.794Z,7.82
2023-09-06T19:37:39.380Z,4.93
2023-09-06T19:40:06.740Z,5.85
2023-09-06T19:42:34.827Z,4.32
2023-09-06T19:45:02.201Z,5.82
2023-09-06T19:47:28.903Z,5.20
2023-09-06T19:49:56.890Z,4.60
2023-09-06T19:52:23.798Z,4.70
2023-09-06T19:54:50.643Z,4.93
2023-09-06T19:57:17.810Z,5.85
2023-09-06T19:59:44.463Z,5.25
2023-09-06T20:02:11.325Z,6.40
2023-09-06T20:04:38.516Z,5.70
2023-09-06T20:07:05.507Z,5.50
2023-09-06T20:09:32.220Z,5.63
2023-09-06T20:11:59.140Z,6.88
2023-09-06T20:14:28.751Z,4.78
2023-09-06T20:16:56.686Z,4.70
2023-09-06T20:19:24.488Z,8.18
2023-09-06T20:21:51.128Z,5.18
2023-09-06T20:24:17.995Z,4.05
2023-09-06T20:26:44.674Z,4.60
2023-09-06T20:29:11.410Z,5.47
2023-09-06T20:31:38.476Z,5.25
2023-09-06T20:34:05.295Z,5.07
2023-09-06T20:36:33.391Z,4.85
2023-09-06T20:39:00.184Z,5.35
2023-09-06T20:41:26.998Z,4.43
2023-09-06T20:43:53.742Z,5.47
2023-09-06T20:46:20.569Z,5.43
2023-09-06T20:48:47.537Z,5.32
2023-09-06T20:51:15.524Z,4.63
2023-09-06T20:53:44.122Z,5.22
2023-09-06T20:56:11.273Z,7.18
2023-09-06T20:58:38.092Z,4.65
2023-09-06T21:01:13.011Z,5.28
2023-09-06T21:03:39.811Z,5.75
2023-09-06T21:06:06.650Z,7.60
2023-09-06T21:08:33.576Z,6.28
2023-09-06T21:11:00.540Z,4.47
2023-09-06T21:13:27.200Z,5.38
2023-09-06T21:15:54.932Z,6.97
2023-09-06T21:18:21.757Z,8.20
2023-09-06T21:20:48.578Z,5.20
2023-09-06T21:23:15.310Z,4.88
2023-09-06T21:25:42.773Z,6.18
2023-09-06T21:28:10.117Z,5.80
2023-09-06T21:30:41.357Z,4.72
2023-09-06T21:33:09.901Z,4.60
2023-09-06T21:35:42.800Z,4.53
2023-09-06T21:38:09.611Z,4.45
2023-09-06T21:40:39.923Z,6.22
2023-09-06T21:43:16.922Z,4.65
2023-09-06T21:45:45.321Z,5.05
2023-09-06T21:48:12.563Z,6.22
2023-09-06T21:50:40.857Z,4.80
2023-09-06T21:53:07.779Z,4.00
2023-09-06T21:55:34.619Z,4.93
2023-09-06T21:58:09.636Z,5.53
2023-09-06T22:00:37.562Z,4.22
2023-09-06T22:03:04.684Z,5.18
2023-09-06T22:05:31.446Z,4.10
2023-09-06T22:07:58.207Z,5.18
2023-09-06T22:10:25.095Z,5.32
2023-09-06T22:12:52.094Z,4.85
2023-09-06T22:15:18.873Z,4.60
2023-09-06T22:17:45.669Z,5.00
2023-09-06T22:20:12.529Z,6.30
2023-09-06T22:22:39.301Z,4.95
2023-09-06T22:25:06.812Z,5.88
2023-09-06T22:27:34.118Z,4.93
2023-09-06T22:30:01.057Z,4.97
2023-09-06T22:32:27.808Z,5.38
2023-09-06T22:34:54.509Z,4.80
2023-09-06T22:37:21.329Z,3.90
2023-09-06T22:39:48.006Z,4.72
2023-09-06T22:42:14.640Z,5.30
2023-09-06T22:44:41.302Z,6.25
2023-09-06T22:47:08.949Z,4.85
2023-09-06T22:49:38.388Z,4.65
2023-09-06T22:52:07.213Z,5.03
2023-09-06T22:54:36.869Z,6.32
2023-09-06T22:57:04.727Z,5.10
2023-09-06T22:59:31.747Z,5.47
2023-09-06T23:01:58.751Z,5.97
2023-09-06T23:04:25.711Z,5.80
2023-09-06T23:06:54.812Z,6.30
2023-09-06T23:09:21.478Z,6.28
2023-09-06T23:11:51.002Z,6.35
2023-09-06T23:14:19.261Z,5.80
2023-09-06T23:16:49.094Z,6.25
2023-09-06T23:19:35.383Z,6.50
2023-09-06T23:22:02.579Z,6.10
2023-09-06T23:24:30.109Z,6.60
2023-09-06T23:27:00.474Z,8.57
2023-09-06T23:29:29.431Z,7.18
2023-09-06T23:31:59.769Z,7.70
2023-09-06T23:34:30.679Z,7.88
2023-09-06T23:36:58.733Z,7.72
2023-09-06T23:39:28.689Z,7.00
2023-09-06T23:41:58.016Z,6.40
2023-09-06T23:44:25.298Z,7.00
2023-09-06T23:46:52.084Z,6.35
2023-09-06T23:49:21.075Z,6.55
2023-09-06T23:51:48.189Z,6.85
2023-09-06T23:54:14.975Z,6.80
2023-09-06T23:56:41.722Z,6.25
2023-09-06T23:59:08.500Z,7.20
